Time;durP1;ratioP1;P1;durP2;ratioP2;P2;SDS_P1;SDS_P2;PMS_P1;PMS_P2;Temp;Humidity;BMP_temperature;BMP_pressure;BME280_temperature;BME280_humidity;BME280_pressure;Samples;Min_cycle;Max_cycle;Signal;HPM_P1;HPM_P2
2023/08/29 00:02:17;;;;;;;4.55;3.17;;;;;;;15.53;80.24;96024.75;6236092;23;20083;-79
2023/08/29 00:04:45;;;;;;;5.63;3.30;;;;;;;15.55;80.78;96025.31;6234946;23;20027;-79
2023/08/29 00:07:13;;;;;;;3.95;3.05;;;;;;;15.56;81.64;96016.38;6236520;23;20020;-79
2023/08/29 00:09:40;;;;;;;3.13;2.92;;;;;;;15.56;81.71;96000.63;6236657;23;20020;-79
2023/08/29 00:12:08;;;;;;;4.93;2.88;;;;;;;15.55;81.09;96009.53;6236172;23;20031;-79
2023/08/29 00:14:36;;;;;;;3.33;2.90;;;;;;;15.49;78.41;96014.91;6235606;23;20021;-79
2023/08/29 00:17:05;;;;;;;4.45;3.10;;;;;;;15.45;78.61;96027.69;6235715;23;20051;-79
2023/08/29 00:19:33;;;;;;;4.63;3.08;;;;;;;15.43;79.16;96033.16;6237741;23;20040;-79
2023/08/29 00:22:00;;;;;;;3.38;3.00;;;;;;;15.43;79.78;96032.38;6237600;23;20031;-79
2023/08/29 00:24:29;;;;;;;2.97;2.72;;;;;;;15.38;78.34;96027.00;6236447;23;20025;-79
2023/08/29 00:26:56;;;;;;;3.15;2.80;;;;;;;15.34;77.58;96029.28;6231769;23;20450;-79
2023/08/29 00:29:26;;;;;;;4.47;2.70;;;;;;;15.32;78.31;96028.69;6231219;23;20021;-78
2023/08/29 00:31:53;;;;;;;4.00;2.72;;;;;;;15.33;78.76;96032.94;6232146;23;20028;-79
2023/08/29 00:34:22;;;;;;;3.83;3.05;;;;;;;15.33;78.54;96034.78;6234915;23;20021;-79
2023/08/29 00:36:51;;;;;;;4.80;2.60;;;;;;;15.32;78.82;96026.06;6233965;23;20055;-79
2023/08/29 00:39:19;;;;;;;3.45;3.15;;;;;;;15.35;79.45;96030.06;6233391;23;20024;-79
2023/08/29 00:41:49;;;;;;;4.30;2.92;;;;;;;15.33;78.98;96014.53;6235678;23;20393;-79
2023/08/29 00:44:17;;;;;;;4.90;2.90;;;;;;;15.35;79.96;96009.03;6233717;23;20022;-80
2023/08/29 00:46:46;;;;;;;3.40;2.70;;;;;;;15.33;79.14;96008.50;6234470;23;20031;-79
2023/08/29 00:49:17;;;;;;;4.13;2.78;;;;;;;15.30;79.80;96003.66;6237914;23;20020;-79
2023/08/29 00:51:47;;;;;;;5.22;3.50;;;;;;;15.28;81.15;96009.16;6236064;23;20021;-79
2023/08/29 00:54:16;;;;;;;4.63;2.85;;;;;;;15.32;81.72;96014.75;6234350;23;20024;-79
2023/08/29 00:56:44;;;;;;;3.10;2.80;;;;;;;15.35;82.12;96030.06;6234205;23;20051;-79
2023/08/29 00:59:12;;;;;;;3.60;3.28;;;;;;;15.36;82.95;96031.69;6233686;23;20071;-79
2023/08/29 01:01:40;;;;;;;3.20;2.75;;;;;;;15.34;81.47;96031.91;6235069;23;20021;-80
2023/08/29 01:04:09;;;;;;;3.85;2.90;;;;;;;15.32;79.94;96033.16;6235098;23;20039;-79
2023/08/29 01:06:38;;;;;;;3.88;2.70;;;;;;;15.27;78.42;96040.91;6234267;23;20048;-79
2023/08/29 01:09:08;;;;;;;3.40;3.10;;;;;;;15.22;79.30;96047.66;6233401;23;20350;-79
2023/08/29 01:11:42;;;;;;;3.60;3.00;;;;;;;15.18;77.43;96050.94;6236508;23;20477;-79
2023/08/29 01:14:15;;;;;;;4.20;3.17;;;;;;;15.13;78.24;96051.63;6241547;23;20032;-79
2023/08/29 01:16:48;;;;;;;3.28;2.97;;;;;;;15.17;80.38;96047.50;6238888;23;20070;-79
2023/08/29 01:19:16;;;;;;;3.22;2.83;;;;;;;15.22;81.10;96047.66;6234511;23;20021;-79
2023/08/29 01:21:50;;;;;;;3.60;3.30;;;;;;;15.29;81.90;96052.00;6234523;23;20086;-79
2023/08/29 01:24:27;;;;;;;3.42;3.13;;;;;;;15.27;83.33;96052.22;6235145;23;20077;-80
2023/08/29 01:26:57;;;;;;;3.78;3.10;;;;;;;15.23;80.57;96043.97;6235259;23;20071;-79
2023/08/29 01:29:26;;;;;;;4.03;3.38;;;;;;;15.22;81.90;96042.38;6236640;23;20035;-79
2023/08/29 01:31:55;;;;;;;4.13;2.97;;;;;;;15.26;81.40;96042.72;6238104;23;20021;-79
2023/08/29 01:34:23;;;;;;;3.40;3.20;;;;;;;15.28;80.82;96034.63;6237883;23;20027;-80
2023/08/29 01:36:51;;;;;;;4.35;3.95;;;;;;;15.30;82.94;96045.72;6237019;23;20025;-79
2023/08/29 01:39:18;;;;;;;3.55;3.25;;;;;;;15.31;82.61;96042.88;6236409;23;20106;-79
2023/08/29 01:41:46;;;;;;;3.13;2.90;;;;;;;15.33;82.21;96034.78;6237965;23;20063;-79
2023/08/29 01:44:15;;;;;;;3.80;3.50;;;;;;;15.35;82.43;96033.50;6237017;23;20020;-80
2023/08/29 01:46:43;;;;;;;4.22;3.40;;;;;;;15.37;82.69;96033.28;6240016;23;20063;-79
2023/08/29 01:49:10;;;;;;;5.03;3.10;;;;;;;15.35;80.67;96030.06;6240656;23;20051;-79
2023/08/29 01:51:38;;;;;;;6.43;3.03;;;;;;;15.33;81.43;96026.88;6241790;23;20021;-79
2023/08/29 01:54:06;;;;;;;3.30;3.00;;;;;;;15.33;82.66;96032.16;6240559;23;20021;-79
2023/08/29 01:56:36;;;;;;;4.15;3.85;;;;;;;15.32;84.50;96033.94;6240065;23;20024;-79
2023/08/29 01:59:06;;;;;;;5.38;3.67;;;;;;;15.32;83.62;96028.69;6239007;23;20044;-79
2023/08/29 02:01:35;;;;;;;4.53;3.60;;;;;;;15.30;83.27;96033.38;6238474;23;20021;-79
2023/08/29 02:04:04;;;;;;;4.13;3.83;;;;;;;15.31;82.63;96018.44;6238751;23;20017;-80
2023/08/29 02:06:33;;;;;;;4.00;3.60;;;;;;;15.32;82.15;96020.00;6237677;23;20060;-79
2023/08/29 02:09:00;;;;;;;3.55;3.20;;;;;;;15.32;81.95;96005.03;6238508;23;20084;-79
2023/08/29 02:11:28;;;;;;;4.45;3.13;;;;;;;15.30;80.97;96011.56;6236780;23;20020;-79
2023/08/29 02:13:56;;;;;;;5.75;3.50;;;;;;;15.28;82.00;96013.59;6239839;23;20024;-79
2023/08/29 02:16:24;;;;;;;3.80;2.90;;;;;;;15.27;82.20;96006.75;6239156;23;20017;-80
2023/08/29 02:18:53;;;;;;;5.55;4.15;;;;;;;15.25;83.07;96010.41;6239676;23;20025;-79
2023/08/29 02:21:21;;;;;;;3.75;3.35;;;;;;;15.23;81.53;96001.94;6238904;23;20021;-79
2023/08/29 02:23:49;;;;;;;3.28;2.97;;;;;;;15.19;81.43;96002.63;6239271;23;20048;-79
2023/08/29 02:26:17;;;;;;;3.92;3.63;;;;;;;15.20;82.74;95997.16;6236901;23;20024;-79
2023/08/29 02:28:44;;;;;;;4.10;3.53;;;;;;;15.21;83.29;95993.47;6237575;23;20051;-79
2023/08/29 02:31:13;;;;;;;3.58;3.28;;;;;;;15.22;82.64;96000.34;6237570;23;20024;-80
2023/08/29 02:33:41;;;;;;;5.43;4.05;;;;;;;15.19;81.91;95994.75;6238679;23;20024;-79
2023/08/29 02:36:09;;;;;;;5.70;3.80;;;;;;;15.18;83.25;95993.94;6237778;23;20010;-79
2023/08/29 02:38:38;;;;;;;7.13;4.32;;;;;;;15.20;84.74;95991.91;6238469;23;20021;-79
2023/08/29 02:41:06;;;;;;;5.47;3.78;;;;;;;15.21;83.19;95987.44;6237345;23;20017;-79
2023/08/29 02:43:34;;;;;;;4.57;3.88;;;;;;;15.21;84.49;95988.22;6237527;23;20055;-80
2023/08/29 02:46:02;;;;;;;3.80;3.50;;;;;;;15.21;83.92;95988.22;6237103;23;20020;-79
2023/08/29 02:48:30;;;;;;;4.32;3.92;;;;;;;15.18;84.66;95983.44;6237834;23;20035;-79
2023/08/29 02:50:57;;;;;;;5.47;3.75;;;;;;;15.15;82.63;95989.16;6237277;23;20052;-79
2023/08/29 02:53:26;;;;;;;4.10;3.38;;;;;;;15.08;81.43;95988.44;6238477;23;20090;-79
2023/08/29 02:55:54;;;;;;;5.45;3.55;;;;;;;15.06;80.64;95989.69;6237484;23;20035;-79
2023/08/29 02:58:22;;;;;;;5.00;3.83;;;;;;;15.06;81.74;95992.31;6236835;23;20076;-79
2023/08/29 03:00:55;;;;;;;4.10;3.72;;;;;;;15.01;80.51;95988.53;6234826;23;20020;-79
2023/08/29 03:03:23;;;;;;;5.50;3.63;;;;;;;14.98;80.33;95989.00;6233607;23;20031;-79
2023/08/29 03:05:54;;;;;;;4.15;3.75;;;;;;;14.98;83.06;95988.19;6233259;23;20021;-79
2023/08/29 03:08:22;;;;;;;4.43;4.03;;;;;;;14.99;82.47;95984.53;6234660;23;20021;-79
2023/08/29 03:10:52;;;;;;;3.67;3.38;;;;;;;14.98;81.06;95978.47;6235383;23;20024;-79
2023/08/29 03:13:19;;;;;;;4.70;3.92;;;;;;;14.96;81.01;95977.13;6234570;23;20021;-79
2023/08/29 03:15:47;;;;;;;4.57;3.47;;;;;;;14.91;80.51;95977.78;6233835;23;20036;-79
2023/08/29 03:29:24;;;;;;;4.45;4.00;;;;;;;14.88;80.80;95969.53;6240653;23;20016;-81
2023/08/29 03:32:17;;;;;;;4.82;4.22;;;;;;;14.86;81.36;95969.75;6243982;23;20024;-80
2023/08/29 03:35:06;;;;;;;3.83;3.53;;;;;;;14.88;82.34;95964.28;6241721;23;20005;-81
2023/08/29 03:38:09;;;;;;;4.45;4.03;;;;;;;14.91;81.17;95955.97;6244021;23;20001;-81
2023/08/29 03:41:25;;;;;;;4.65;4.22;;;;;;;14.94;82.09;95966.03;6243504;23;20028;-80
2023/08/29 03:44:39;;;;;;;4.13;3.83;;;;;;;14.93;81.82;95967.03;6244246;23;20008;-80
2023/08/29 03:58:32;;;;;;;4.80;4.43;;;;;;;14.92;83.24;95963.63;6144361;23;20273;-81
2023/08/29 04:07:09;;;;;;;5.93;4.43;;;;;;;14.97;84.54;95960.31;6262312;22;20003;-80
2023/08/29 04:13:38;;;;;;;7.50;5.88;;;;;;;14.99;85.18;95963.53;6248216;22;20000;-80
2023/08/29 04:16:28;;;;;;;4.93;4.13;;;;;;;14.97;84.18;95966.38;6251161;22;20072;-80
2023/08/29 04:19:27;;;;;;;5.93;4.65;;;;;;;14.90;82.27;95964.88;6236583;23;20008;-79
2023/08/29 04:32:37;;;;;;;5.30;4.80;;;;;;;14.86;84.44;95961.09;6235318;23;20047;-81
2023/08/29 04:38:57;;;;;;;5.63;5.13;;;;;;;14.90;86.59;95973.53;6243658;23;20000;-81
2023/08/29 04:42:22;;;;;;;6.22;4.28;;;;;;;14.88;85.16;95974.81;6217486;23;20100;-80
2023/08/29 04:45:19;;;;;;;4.97;4.47;;;;;;;14.85;84.79;95976.06;6243374;23;20028;-81
2023/08/29 04:48:23;;;;;;;5.63;4.95;;;;;;;14.87;84.58;95966.13;6237157;23;20009;-81
2023/08/29 04:56:26;;;;;;;13.52;10.02;;;;;;;14.92;84.02;95962.81;6259897;22;20008;-80
2023/08/29 04:58:58;;;;;;;8.05;6.25;;;;;;;14.95;84.75;95957.13;6259851;22;20051;-81
2023/08/29 05:01:28;;;;;;;5.50;4.93;;;;;;;14.96;84.40;95966.59;6244525;23;20020;-80
2023/08/29 05:04:02;;;;;;;5.47;4.68;;;;;;;14.99;85.20;95966.16;6245075;23;20009;-81
2023/08/29 05:06:33;;;;;;;6.22;5.25;;;;;;;15.01;84.92;95964.88;6245426;23;20009;-81
2023/08/29 05:09:13;;;;;;;6.50;5.32;;;;;;;15.00;84.82;95958.06;6245306;23;20005;-81
2023/08/29 05:11:50;;;;;;;4.78;4.32;;;;;;;15.00;83.48;95962.50;6221359;23;20072;-81
2023/08/29 05:14:23;;;;;;;6.25;5.03;;;;;;;14.99;83.76;95963.53;6244428;23;20024;-80
2023/08/29 05:17:09;;;;;;;7.93;5.55;;;;;;;15.03;84.69;95969.94;6245667;22;20046;-81
2023/08/29 05:19:37;;;;;;;5.25;4.78;;;;;;;15.01;83.86;95961.47;6240690;22;20023;-80
2023/08/29 05:22:05;;;;;;;4.88;4.10;;;;;;;14.98;82.98;95956.69;6239154;22;20004;-80
2023/08/29 05:24:33;;;;;;;6.60;5.80;;;;;;;14.98;83.56;95959.31;6244073;22;20056;-80
2023/08/29 05:27:03;;;;;;;7.00;5.32;;;;;;;14.99;84.75;95960.91;6224158;22;20095;-80
2023/08/29 05:29:33;;;;;;;8.68;5.95;;;;;;;14.99;85.27;95974.03;6218133;23;20024;-83
2023/08/29 05:57:00;;;;;;;6.55;5.95;;;;;;;14.93;85.05;95974.91;6212349;22;20196;-78
2023/08/29 06:00:14;;;;;;;5.88;5.38;;;;;;;14.89;83.79;95973.75;6251863;23;20001;-79
2023/08/29 06:03:22;;;;;;;6.28;5.68;;;;;;;14.86;84.86;95980.25;6221357;23;20051;-79
2023/08/29 06:06:16;;;;;;;5.88;5.38;;;;;;;14.81;83.62;95973.06;6219651;23;20032;-79
2023/08/29 06:09:17;;;;;;;6.03;5.43;;;;;;;14.79;83.53;95979.56;6244484;23;20020;-79
2023/08/29 06:12:09;;;;;;;6.40;5.80;;;;;;;14.76;84.34;95980.03;6244172;23;20044;-79
2023/08/29 06:15:00;;;;;;;6.18;5.53;;;;;;;14.75;83.15;95979.19;6245092;23;20016;-83
2023/08/29 06:18:03;;;;;;;5.00;4.60;;;;;;;14.72;82.41;95984.91;6245404;23;20052;-79
2023/08/29 06:20:51;;;;;;;5.43;4.93;;;;;;;14.71;83.46;95988.53;6244161;23;20017;-79
2023/08/29 06:26:48;;;;;;;;;;;;;;;14.72;84.20;95994.63;6244646;23;20001;-79
2023/08/29 06:29:34;;;;;;;5.97;5.38;;;;;;;14.72;84.04;95992.00;6220268;23;19906;-79
2023/08/29 06:32:36;;;;;;;6.22;5.63;;;;;;;14.74;84.20;95996.00;6243995;23;20025;-80
2023/08/29 06:35:42;;;;;;;5.35;4.85;;;;;;;14.72;83.42;95995.41;6243453;23;20008;-79
2023/08/29 06:38:21;;;;;;;5.63;5.05;;;;;;;14.70;83.64;95996.66;6244123;23;20021;-79
2023/08/29 06:41:19;;;;;;;5.65;4.95;;;;;;;14.72;84.10;96005.91;6221442;23;20021;-78
2023/08/29 06:44:39;;;;;;;6.82;5.20;;;;;;;14.69;85.18;96006.34;6244378;23;20012;-79
2023/08/29 06:47:28;;;;;;;6.18;5.47;;;;;;;14.70;83.53;96018.47;6244114;23;20001;-79
2023/08/29 06:53:19;;;;;;;6.45;5.20;;;;;;;14.73;83.66;96014.59;6243793;23;20016;-79
2023/08/29 06:56:06;;;;;;;6.07;5.35;;;;;;;14.71;83.46;96012.16;6244330;23;20001;-78
2023/08/29 06:58:55;;;;;;;5.85;5.35;;;;;;;14.68;83.18;96015.25;6242988;23;20020;-80
2023/08/29 07:02:07;;;;;;;6.28;5.65;;;;;;;14.65;82.82;96020.94;6243732;23;20009;-80
2023/08/29 07:04:46;;;;;;;5.95;5.35;;;;;;;14.64;83.73;96019.34;6242512;23;20056;-79
2023/08/29 07:07:51;;;;;;;5.78;5.28;;;;;;;14.59;82.25;96027.06;6243745;23;20019;-79
2023/08/29 07:10:49;;;;;;;6.30;4.88;;;;;;;14.54;82.20;96024.25;6244131;23;20048;-79
2023/08/29 07:13:50;;;;;;;6.07;5.03;;;;;;;14.50;82.28;96028.38;6243530;23;20023;-78
2023/08/29 07:16:43;;;;;;;5.82;5.32;;;;;;;14.49;83.03;96029.38;6243740;23;20017;-79
2023/08/29 07:22:54;;;;;;;5.50;4.78;;;;;;;14.52;83.38;96040.25;6243752;23;20048;-79
2023/08/29 07:25:45;;;;;;;5.78;5.28;;;;;;;14.54;82.65;96045.25;6243199;23;20036;-79
2023/08/29 07:28:42;;;;;;;;;;;;;;;;;;;;;
2023/08/29 07:31:25;;;;;;;5.30;4.80;;;;;;;14.56;83.06;96053.75;6242969;23;20020;-79
2023/08/29 07:34:05;;;;;;;5.75;4.90;;;;;;;14.59;83.85;96055.94;6243551;23;20005;-79
2023/08/29 07:37:05;;;;;;;6.30;5.70;;;;;;;14.64;85.24;96058.72;6243543;23;20012;-78
2023/08/29 07:42:48;;;;;;;6.07;5.57;;;;;;;14.71;85.58;96056.00;6243431;23;20060;-81
2023/08/29 07:45:52;;;;;;;6.60;5.20;;;;;;;14.73;84.24;96057.38;6243400;23;20020;-78
2023/08/29 07:48:31;;;;;;;6.07;5.07;;;;;;;14.78;85.13;96068.03;6217269;23;20020;-79
2023/08/29 07:51:16;;;;;;;6.13;5.53;;;;;;;14.82;84.76;96058.69;6243520;23;20024;-78
2023/08/29 07:54:05;;;;;;;5.90;5.40;;;;;;;14.86;83.98;96063.50;6243686;23;20017;-79
2023/08/29 07:59:52;;;;;;;5.80;5.30;;;;;;;14.86;83.66;96066.13;6240446;23;20001;-79
2023/08/29 08:02:39;;;;;;;5.43;4.93;;;;;;;14.86;83.60;96068.75;6218259;23;20036;-79
2023/08/29 08:05:27;;;;;;;5.85;5.32;;;;;;;14.88;84.34;96069.34;6242747;23;20016;-78
2023/08/29 08:08:35;;;;;;;5.57;5.07;;;;;;;14.93;83.82;96074.72;6243136;23;20020;-80
2023/08/29 08:11:31;;;;;;;5.43;5.00;;;;;;;14.96;84.87;96075.06;6243070;23;20056;-79
2023/08/29 08:14:37;;;;;;;5.38;4.88;;;;;;;14.97;84.91;96070.63;6242868;23;20016;-80
2023/08/29 08:17:34;;;;;;;5.72;5.22;;;;;;;15.02;86.46;96076.00;6243255;23;20021;-79
2023/08/29 08:20:32;;;;;;;5.43;4.95;;;;;;;15.04;86.16;96076.56;6242636;23;20020;-78
2023/08/29 08:23:30;;;;;;;6.03;5.40;;;;;;;15.08;85.38;96077.75;6243357;23;20072;-79
2023/08/29 08:26:17;;;;;;;5.50;4.97;;;;;;;15.09;85.21;96074.09;6242743;23;20017;-79
2023/08/29 08:32:21;;;;;;;5.38;4.88;;;;;;;15.12;84.23;96072.84;6273549;22;20030;-79
2023/08/29 08:51:49;;;;;;;3.95;3.47;;;;;;;15.29;83.98;96073.03;6221642;22;20084;-78
2023/08/29 08:54:37;;;;;;;4.45;4.05;;;;;;;15.28;83.76;96074.03;6273317;22;20000;-79
2023/08/29 08:57:29;;;;;;;4.68;4.28;;;;;;;15.30;84.42;96077.25;6273526;23;20076;-79
2023/08/29 09:00:19;;;;;;;4.00;3.70;;;;;;;15.30;83.47;96078.03;6246336;23;20028;-79
2023/08/29 09:03:22;;;;;;;3.95;3.65;;;;;;;15.30;83.67;96079.88;6242573;23;20012;-79
2023/08/29 09:06:41;;;;;;;4.53;4.13;;;;;;;15.32;84.90;96078.63;6242650;23;20051;-78
2023/08/29 09:18:55;;;;;;;5.10;4.63;;;;;;;15.27;83.42;96091.63;6233417;23;20071;-80
2023/08/29 09:21:23;;;;;;;5.80;5.20;;;;;;;15.25;83.18;96089.22;6217251;23;20398;-78
2023/08/29 09:23:52;;;;;;;5.28;4.70;;;;;;;15.22;83.13;96089.69;6218055;23;20071;-78
2023/08/29 09:26:21;;;;;;;4.55;4.15;;;;;;;15.18;82.77;96088.53;6217154;23;20025;-78
2023/08/29 09:28:48;;;;;;;5.43;5.03;;;;;;;15.20;83.16;96083.84;6216910;23;20043;-78
2023/08/29 09:31:17;;;;;;;7.32;4.60;;;;;;;15.22;83.66;96087.06;6217696;23;20074;-78
2023/08/29 09:33:44;;;;;;;5.07;4.57;;;;;;;15.26;83.60;96084.75;6217546;23;20072;-78
2023/08/29 09:36:12;;;;;;;4.78;4.38;;;;;;;15.32;83.61;96085.72;6217754;23;20025;-78
2023/08/29 09:38:41;;;;;;;4.30;3.90;;;;;;;15.38;83.72;96087.44;6218227;23;20021;-78
2023/08/29 09:41:13;;;;;;;4.60;4.20;;;;;;;15.45;83.96;96093.41;6236863;23;20017;-78
2023/08/29 09:43:48;;;;;;;4.55;4.25;;;;;;;15.49;83.30;96099.81;6236719;23;20021;-78
2023/08/29 09:46:21;;;;;;;3.20;3.00;;;;;;;15.53;83.20;96093.09;6232039;23;20040;-78
2023/08/29 09:48:55;;;;;;;3.58;3.28;;;;;;;15.57;82.43;96088.97;6219092;23;20458;-78
2023/08/29 09:51:25;;;;;;;3.53;3.22;;;;;;;15.59;83.07;96089.56;6219616;23;20021;-78
2023/08/29 09:53:57;;;;;;;2.90;2.70;;;;;;;15.60;81.12;96092.97;6219355;23;20099;-78
2023/08/29 09:56:26;;;;;;;2.85;2.65;;;;;;;15.58;80.94;96097.66;6219857;23;20074;-78
2023/08/29 09:59:00;;;;;;;4.35;2.65;;;;;;;15.58;80.76;96092.41;6218950;23;20017;-78
2023/08/29 10:01:28;;;;;;;3.00;2.67;;;;;;;15.61;81.52;96092.75;6219310;23;20028;-78
2023/08/29 10:03:57;;;;;;;3.40;3.10;;;;;;;15.60;80.80;96091.16;6218367;23;20032;-78
2023/08/29 10:06:25;;;;;;;2.88;2.58;;;;;;;15.62;81.75;96104.88;6218868;23;20021;-78
2023/08/29 10:08:57;;;;;;;3.22;3.03;;;;;;;15.67;82.13;96096.31;6219643;23;20017;-78
2023/08/29 10:11:26;;;;;;;3.50;2.90;;;;;;;15.71;80.88;96110.63;6219518;23;20071;-78
2023/08/29 10:14:06;;;;;;;3.05;2.80;;;;;;;15.72;81.01;96108.81;6218961;23;20458;-78
2023/08/29 10:16:34;;;;;;;3.47;3.17;;;;;;;15.74;81.12;96107.56;6219197;23;20032;-78
2023/08/29 10:19:02;;;;;;;3.40;3.10;;;;;;;15.76;81.46;96104.69;6218259;23;20021;-78
2023/08/29 10:21:31;;;;;;;6.47;3.67;;;;;;;15.79;81.40;96104.25;6218865;23;20075;-78
2023/08/29 10:24:00;;;;;;;3.50;3.20;;;;;;;15.80;80.75;96105.84;6218184;23;20074;-78
2023/08/29 10:26:28;;;;;;;3.85;3.45;;;;;;;15.81;80.87;96105.63;6219033;23;20025;-78
2023/08/29 10:28:56;;;;;;;4.70;3.40;;;;;;;15.81;80.52;96097.75;6218123;23;20016;-78
2023/08/29 10:31:26;;;;;;;4.55;3.13;;;;;;;15.85;80.93;96098.06;6218151;23;20532;-78
2023/08/29 10:33:56;;;;;;;4.25;3.50;;;;;;;15.89;82.08;96101.06;6218658;23;20021;-78
2023/08/29 10:36:25;;;;;;;3.03;2.83;;;;;;;15.94;80.23;96102.00;6219094;23;20071;-78
2023/08/29 10:38:53;;;;;;;4.95;3.20;;;;;;;15.97;79.99;96098.09;6218440;23;20017;-78
2023/08/29 10:41:21;;;;;;;3.20;2.97;;;;;;;16.00;79.61;96101.06;6218310;23;20021;-78
2023/08/29 10:43:52;;;;;;;3.70;3.30;;;;;;;16.04;79.38;96109.31;6218760;23;20025;-78
2023/08/29 10:46:21;;;;;;;4.05;2.90;;;;;;;16.04;78.94;96102.19;6218847;23;20029;-78
2023/08/29 10:48:55;;;;;;;3.50;3.30;;;;;;;16.06;78.76;96105.41;6218886;23;20454;-78
2023/08/29 10:51:25;;;;;;;3.20;2.95;;;;;;;16.11;79.46;96098.66;6218833;23;20024;-78
2023/08/29 10:53:56;;;;;;;3.80;3.20;;;;;;;16.14;79.37;96100.84;6218878;23;20051;-78
2023/08/29 10:56:26;;;;;;;3.72;3.40;;;;;;;16.13;79.57;96099.25;6218898;23;20468;-78
2023/08/29 10:58:56;;;;;;;4.13;3.30;;;;;;;16.17;79.81;96101.19;6218491;23;20032;-78
2023/08/29 11:01:31;;;;;;;3.35;3.10;;;;;;;16.19;79.29;96101.75;6219433;23;20074;-78
2023/08/29 11:04:03;;;;;;;2.92;2.70;;;;;;;16.22;79.44;96097.84;6217476;23;20016;-78
2023/08/29 11:06:53;;;;;;;3.15;2.95;;;;;;;16.28;79.91;96102.22;6218479;23;20052;-78
2023/08/29 11:09:22;;;;;;;3.65;3.35;;;;;;;16.30;78.80;96094.88;6218857;23;20021;-78
2023/08/29 11:12:09;;;;;;;4.18;3.03;;;;;;;16.34;78.87;96100.50;6218245;23;20516;-78
2023/08/29 11:14:49;;;;;;;3.55;3.25;;;;;;;16.34;78.29;96101.28;6218982;23;20024;-78
2023/08/29 11:17:22;;;;;;;3.20;3.00;;;;;;;16.33;78.26;96099.69;6218437;23;20028;-78
2023/08/29 11:19:56;;;;;;;2.60;2.40;;;;;;;16.33;77.92;96101.50;6218104;23;20071;-78
2023/08/29 11:22:26;;;;;;;2.67;2.50;;;;;;;16.33;78.78;96104.94;6219211;23;20071;-78
2023/08/29 11:24:55;;;;;;;3.13;2.70;;;;;;;16.37;78.31;96105.28;6218878;23;20079;-78
2023/08/29 11:27:23;;;;;;;3.50;3.22;;;;;;;16.35;78.49;96107.34;6218435;23;20020;-78
2023/08/29 11:29:53;;;;;;;3.20;2.90;;;;;;;16.34;78.15;96101.28;6218300;23;20025;-78
2023/08/29 11:32:32;;;;;;;3.58;3.28;;;;;;;16.34;78.41;96095.25;6218692;23;20024;-78
2023/08/29 11:35:04;;;;;;;4.53;3.22;;;;;;;16.38;79.57;96101.66;6218534;23;20102;-78
2023/08/29 11:37:31;;;;;;;3.10;2.80;;;;;;;16.39;78.71;96104.03;6218628;23;20028;-78
2023/08/29 11:40:01;;;;;;;2.70;2.42;;;;;;;16.38;78.02;96107.69;6218217;23;20028;-78
2023/08/29 11:42:32;;;;;;;2.70;2.50;;;;;;;16.36;77.90;96098.44;6218603;23;20024;-78
2023/08/29 11:45:20;;;;;;;4.30;2.63;;;;;;;16.40;78.35;96105.66;6217960;23;20024;-78
2023/08/29 11:48:08;;;;;;;3.20;2.90;;;;;;;16.46;79.22;96101.28;6217984;23;20020;-78
2023/08/29 11:50:40;;;;;;;2.80;2.60;;;;;;;16.54;78.69;96102.75;6217967;23;20017;-78
2023/08/29 11:53:08;;;;;;;2.92;2.67;;;;;;;16.57;78.85;96100.44;6217732;23;20025;-78
2023/08/29 11:55:36;;;;;;;2.58;2.28;;;;;;;16.59;78.11;96100.22;6218804;23;20090;-78
2023/08/29 11:58:04;;;;;;;2.70;2.50;;;;;;;16.60;77.83;96097.38;6228524;23;20024;-78
2023/08/29 12:00:32;;;;;;;2.63;2.45;;;;;;;16.61;77.15;96095.53;6217461;23;20021;-78
2023/08/29 12:03:00;;;;;;;2.40;2.30;;;;;;;16.62;77.54;96095.31;6218275;23;20406;-78
2023/08/29 12:05:27;;;;;;;2.40;2.25;;;;;;;16.65;78.09;96091.41;6219670;23;20016;-78
2023/08/29 12:07:56;;;;;;;2.78;2.55;;;;;;;16.67;78.11;96090.13;6219824;23;20079;-78
2023/08/29 12:10:26;;;;;;;3.25;2.95;;;;;;;16.71;78.10;96085.22;6218441;23;20017;-78
2023/08/29 12:12:53;;;;;;;3.70;3.10;;;;;;;16.75;78.64;96086.34;6219280;23;20044;-78
2023/08/29 12:15:34;;;;;;;3.15;2.95;;;;;;;16.80;78.01;96083.03;6219644;23;20020;-78
2023/08/29 12:18:20;;;;;;;2.92;2.72;;;;;;;16.84;77.47;96092.88;6219478;23;20339;-78
2023/08/29 12:20:48;;;;;;;2.85;2.65;;;;;;;16.88;77.26;96093.22;6219756;23;20024;-78
2023/08/29 12:23:26;;;;;;;3.25;2.83;;;;;;;16.93;76.34;96089.88;6219820;23;20025;-78
2023/08/29 12:25:56;;;;;;;3.17;2.88;;;;;;;16.95;77.72;96082.56;6219724;23;20462;-78
2023/08/29 12:28:25;;;;;;;3.22;2.75;;;;;;;16.99;78.12;96087.09;6229387;23;20024;-78
2023/08/29 12:30:54;;;;;;;3.88;2.88;;;;;;;16.99;76.75;96088.94;6238699;23;20020;-78
2023/08/29 12:33:22;;;;;;;3.10;2.80;;;;;;;16.96;76.71;96087.56;6225054;23;20466;-78
2023/08/29 12:35:50;;;;;;;3.22;2.60;;;;;;;16.92;75.72;96085.63;6218972;23;20024;-78
2023/08/29 12:38:18;;;;;;;4.13;2.67;;;;;;;16.86;75.25;96098.72;6219293;23;20405;-78
2023/08/29 12:40:47;;;;;;;2.47;2.30;;;;;;;16.83;75.83;96091.25;6218855;23;20055;-78
2023/08/29 12:43:17;;;;;;;2.70;2.40;;;;;;;16.84;75.97;96090.25;6219327;23;20017;-78
2023/08/29 12:45:44;;;;;;;2.30;2.20;;;;;;;16.80;74.73;96096.22;6219216;23;20020;-78
2023/08/29 12:48:26;;;;;;;2.60;2.40;;;;;;;16.79;76.01;96102.47;6219232;23;20017;-78
2023/08/29 12:50:53;;;;;;;2.75;2.33;;;;;;;16.81;75.90;96108.34;6218911;23;20450;-78
2023/08/29 12:53:21;;;;;;;2.47;2.35;;;;;;;16.83;76.32;96103.63;6219509;23;20052;-78
2023/08/29 12:55:51;;;;;;;3.58;1.95;;;;;;;16.83;75.09;96099.16;6219995;23;20489;-78
2023/08/29 12:58:18;;;;;;;1.70;1.60;;;;;;;16.83;74.73;96093.91;6219934;23;20021;-78
2023/08/29 13:00:46;;;;;;;2.58;2.38;;;;;;;16.86;75.10;96093.44;6219664;23;20020;-78
2023/08/29 13:03:14;;;;;;;1.70;1.60;;;;;;;16.89;74.41;96095.59;6220059;23;20024;-78
2023/08/29 13:05:42;;;;;;;2.20;2.00;;;;;;;16.91;74.85;96089.31;6219776;23;20024;-78
2023/08/29 13:08:10;;;;;;;2.30;2.08;;;;;;;16.91;74.46;96092.75;6219573;23;20025;-78
2023/08/29 13:10:38;;;;;;;3.63;1.98;;;;;;;16.91;74.41;96084.03;6218996;23;20374;-78
2023/08/29 13:13:07;;;;;;;1.60;1.42;;;;;;;16.89;72.75;96092.19;6219548;23;20051;-78
2023/08/29 13:15:36;;;;;;;2.83;1.70;;;;;;;16.87;72.86;96094.25;6220106;23;20024;-78
2023/08/29 13:18:17;;;;;;;1.73;1.10;;;;;;;16.87;73.00;96092.41;6219094;23;20021;-78
2023/08/29 13:20:45;;;;;;;1.40;1.30;;;;;;;16.88;71.90;96101.91;6188760;23;20393;-78
2023/08/29 13:23:13;;;;;;;1.63;1.52;;;;;;;16.88;71.46;96090.59;6189129;23;20374;-78
2023/08/29 13:25:40;;;;;;;1.48;1.20;;;;;;;16.89;71.79;96092.19;6190071;23;20056;-78
2023/08/29 13:28:09;;;;;;;2.17;1.15;;;;;;;16.88;71.14;96093.22;6200869;23;20025;-78
2023/08/29 13:30:37;;;;;;;1.30;1.20;;;;;;;16.88;71.67;96087.97;6202802;23;20013;-78
2023/08/29 13:33:05;;;;;;;1.40;1.30;;;;;;;16.87;71.12;96091.59;6202011;23;20025;-78
2023/08/29 13:35:32;;;;;;;2.20;1.77;;;;;;;16.89;72.16;96092.19;6200209;23;20158;-78
2023/08/29 13:38:02;;;;;;;2.38;1.35;;;;;;;16.92;71.34;96085.63;6191300;23;20031;-78
2023/08/29 13:40:29;;;;;;;2.30;1.40;;;;;;;16.97;72.50;96099.72;6190927;23;20031;-78
2023/08/29 13:42:57;;;;;;;3.05;1.15;;;;;;;17.03;73.37;96093.50;6191423;23;20076;-78
2023/08/29 13:45:26;;;;;;;2.92;1.35;;;;;;;17.06;72.35;96093.03;6191366;23;20605;-78
2023/08/29 13:47:54;;;;;;;1.52;1.35;;;;;;;17.07;71.64;96093.81;6190507;23;20021;-78
2023/08/29 13:50:22;;;;;;;1.77;1.50;;;;;;;17.07;71.65;96091.97;6190747;23;20028;-78
2023/08/29 13:52:49;;;;;;;2.15;1.80;;;;;;;17.09;71.61;96087.28;6190565;23;20021;-78
2023/08/29 13:55:17;;;;;;;2.35;1.63;;;;;;;17.11;70.88;96086.25;6191349;23;20359;-78
2023/08/29 13:57:45;;;;;;;1.40;1.30;;;;;;;17.13;71.26;96086.81;6191306;23;20078;-78
2023/08/29 14:00:13;;;;;;;2.50;1.55;;;;;;;17.15;71.74;96090.03;6191130;23;20137;-78
2023/08/29 14:02:42;;;;;;;1.60;1.50;;;;;;;17.16;72.10;96094.25;6191588;23;20028;-78
2023/08/29 14:05:10;;;;;;;1.50;1.35;;;;;;;17.18;71.99;96082.44;6191422;23;20550;-78
2023/08/29 14:07:38;;;;;;;1.50;1.40;;;;;;;17.20;71.33;96088.28;6193411;23;20087;-78
2023/08/29 14:10:06;;;;;;;1.33;1.17;;;;;;;17.19;71.61;96084.06;6198439;23;20068;-78
2023/08/29 14:12:34;;;;;;;1.48;1.38;;;;;;;17.22;71.26;96090.69;6189512;23;20087;-78
2023/08/29 14:15:01;;;;;;;1.50;1.40;;;;;;;17.21;71.58;96094.38;6189907;23;20025;-78
2023/08/29 14:17:29;;;;;;;1.20;1.10;;;;;;;17.22;72.14;96086.19;6190040;23;20083;-78